Hanseatic Scout — V2BM2 — position and weather

sailwx.info

Track history (hours):
 
Tides and Currents Weather Stations Pressure Air Temp Water Temp Dewpoint Dewpoint Depression Visibility Wind Speed Wind Dir Waves Ship Positions

Hanseatic Scout

Last reported at 2014-Jul-26 14:25 UTC. Time now 2014-Jul-26 15:15 UTC.
Position N 54°23' E 003°17'.

Length 89 m; draft 5.7 m.

Type: Cargo ship. MMSI: 304867000.

Date/timePositionNaut miles runAvg speedWind from/ knotsBaromVisibWave heightAir tempDewpointWater temp
2014-Jul-26 14:25N 54°23' E 003°17'8 9.2
2014-Jul-26 13:34N 54°29' E 003°08'9 9.1
2014-Jul-26 12:33N 54°36' E 002°58'9 9.1
2014-Jul-26 11:33N 54°43' E 002°48'9 9.2
2014-Jul-26 10:33N 54°51' E 002°39'10 9.6
2014-Jul-26 09:34N 54°58' E 002°28'10 9.5
2014-Jul-26 08:33N 55°06' E 002°18'10 9.6
2014-Jul-26 07:33N 55°13' E 002°08'10 9.6
2014-Jul-26 06:33N 55°21' E 001°57'10 9.6
2014-Jul-26 05:33N 55°28' E 001°47'1010.1
2014-Jul-26 04:32N 55°36' E 001°35'1010.0
2014-Jul-26 03:33N 55°44' E 001°24'1110.1
2014-Jul-26 02:26N 55°53' E 001°11'910.1
2014-Jul-26 01:33N 55°59' E 001°01'1010.1
2014-Jul-26 00:33N 56°07' E 000°50'1010.0
2014-Jul-25 23:33N 56°15' E 000°38'10 9.8
2014-Jul-25 22:34N 56°22' E 000°27'10 9.6
2014-Jul-25 21:33N 56°30' E 000°16'10 9.6
2014-Jul-25 20:33N 56°37' E 000°05'10 9.8
2014-Jul-25 19:34N 56°45' W 000°06'10 9.7
2014-Jul-25 18:34N 56°53' W 000°17'10 9.6
2014-Jul-25 17:34N 57°00' W 000°27'9 9.3
2014-Jul-25 16:34N 57°08' W 000°38'9 9.4
2014-Jul-25 15:33N 57°15' W 000°49'10 9.5
2014-Jul-25 14:33N 57°22' W 001°01'10 9.8
2014-Jul-25 13:34N 57°30' W 001°12'1010.2
2014-Jul-25 12:33N 57°38' W 001°24'1110.6
2014-Jul-25 11:34N 57°46' W 001°36'1010.4
2014-Jul-25 10:34N 57°54' W 001°49'1110.2
2014-Jul-25 09:31N 58°02' W 002°02'1310.2
2014-Jul-25 08:13N 58°13' W 002°18'710.2
2014-Jul-25 07:31N 58°18' W 002°26'1010.3
2014-Jul-25 06:33N 58°26' W 002°38'10 9.8
2014-Jul-25 05:34N 58°33' W 002°49'9 8.9
2014-Jul-25 04:33N 58°40' W 003°00'6 6.1
2014-Jul-25 03:33N 58°43' W 003°11'7 7.4
2014-Jul-25 02:33N 58°42' W 003°25'7 6.9
2014-Jul-25 01:33N 58°42' W 003°39'8 8.0
2014-Jul-25 00:33N 58°42' W 003°54'8 8.3
2014-Jul-24 23:34N 58°41' W 004°10'9 8.5
2014-Jul-24 22:33N 58°41' W 004°26'9 8.8
2014-Jul-24 21:33N 58°40' W 004°43'9 9.3
2014-Jul-24 20:33N 58°39' W 005°01'1510.4
2014-Jul-24 19:05N 58°28' W 005°20'6 9.9
2014-Jul-24 18:31N 58°23' W 005°27'2010.3
2014-Jul-24 16:32N 58°06' W 005°49'10 9.7
2014-Jul-24 15:33N 57°59' W 005°59'101 5.9
2014-Jul-23 22:34N 56°18' W 005°47'4 0.2
2014-Jul-23 04:19N 56°16' W 005°53'9 9.5
2014-Jul-23 03:22N 56°11' W 006°07'2310.1
2014-Jul-23 01:07N 55°53' W 006°31'610.7
2014-Jul-23 00:33N 55°47' W 006°33'1110.7
2014-Jul-22 23:33N 55°37' W 006°29'1111.5
2014-Jul-22 22:34N 55°28' W 006°17'1010.1
2014-Jul-22 21:34N 55°23' W 006°01'1111.2
2014-Jul-22 20:34N 55°14' W 005°51'1110.8
2014-Jul-22 19:34N 55°03' W 005°45'1010.3
2014-Jul-22 18:34N 54°54' W 005°38'10 9.7
2014-Jul-22 17:34N 54°44' W 005°40'10 9.6
2014-Jul-22 16:33N 54°38' W 005°53'1 0.5
2014-Jul-22 15:06N 54°37' W 005°54'0 0.0
2014-Jul-22 09:09N 54°37' W 005°54'0 0.0
2014-Jul-22 08:24N 54°37' W 005°54'0 0.0
2014-Jul-22 07:26N 54°37' W 005°54'0 0.0
2014-Jul-22 06:30N 54°37' W 005°54'0 0.0
2014-Jul-22 05:33N 54°37' W 005°54'0 0.0
2014-Jul-22 04:33N 54°37' W 005°54'0 0.0
2014-Jul-22 03:33N 54°37' W 005°54'0 0.0
2014-Jul-22 02:34N 54°37' W 005°54'0 0.0
2014-Jul-22 01:33N 54°37' W 005°54'0 0.0
2014-Jul-22 00:31N 54°37' W 005°54'0 0.0
2014-Jul-21 23:33N 54°37' W 005°54'0 0.0
2014-Jul-21 22:33N 54°37' W 005°54'0 0.0
2014-Jul-21 21:33N 54°37' W 005°54'0 0.0
2014-Jul-21 20:33N 54°37' W 005°54'0 0.0
2014-Jul-21 20:18N 54°37' W 005°54'0 0.0
2014-Jul-21 19:15N 54°37' W 005°54'0 0.0
2014-Jul-21 18:29N 54°37' W 005°54'0 0.0
2014-Jul-21 17:31N 54°37' W 005°54'0 0.0
2014-Jul-21 16:33N 54°37' W 005°54'0 0.0
2014-Jul-21 15:32N 54°37' W 005°54'0 0.0
2014-Jul-21 14:28N 54°37' W 005°54'0 0.0
2014-Jul-21 13:21N 54°37' W 005°54'0 0.0
2014-Jul-21 12:14N 54°37' W 005°54'0 0.0
2014-Jul-21 11:22N 54°37' W 005°54'0 0.0
2014-Jul-21 10:31N 54°37' W 005°54'0 0.0
2014-Jul-21 09:29N 54°37' W 005°54'0 0.0
2014-Jul-21 08:19N 54°37' W 005°54'0 0.0
2014-Jul-21 07:29N 54°37' W 005°54'0 0.0
2014-Jul-21 06:28N 54°37' W 005°54'2 2.0
2014-Jul-21 05:33N 54°39' W 005°52'8 8.1
2014-Jul-21 04:33N 54°44' W 005°41'7 6.6
2014-Jul-21 03:34N 54°49' W 005°36'6 6.4
2014-Jul-21 02:33N 54°56' W 005°34'18 8.8
2014-Jul-21 00:33N 55°10' W 005°53'8 7.8
2014-Jul-20 23:33N 55°16' W 006°01'7 6.7
2014-Jul-20 22:33N 55°21' W 006°08'7 7.1
2014-Jul-20 21:34N 55°24' W 006°20'7 7.0
2014-Jul-20 20:33N 55°30' W 006°26'7 6.9
2014-Jul-20 19:33N 55°36' W 006°32'6 5.6
2014-Jul-20 18:34N 55°41' W 006°37'8 7.7
2014-Jul-20 17:33N 55°47' W 006°45'9 9.0
2014-Jul-20 16:34N 55°55' W 006°52'131 7.2
2014-Jul-19 22:21N 58°03' W 006°08'7 8.1
2014-Jul-19 21:32N 58°08' W 005°59'8 8.1
2014-Jul-19 20:33N 58°14' W 005°48'8 8.0
2014-Jul-19 19:33N 58°19' W 005°38'39 7.8
2014-Jul-19 14:33N 58°40' W 004°35'7 7.5
2014-Jul-19 13:33N 58°41' W 004°21'7 6.8
2014-Jul-19 12:33N 58°41' W 004°08'7 7.0
2014-Jul-19 11:34N 58°42' W 003°54'8 7.7
2014-Jul-19 10:33N 58°43' W 003°40'9 8.8
2014-Jul-19 09:33N 58°43' W 003°22'1212.4
2014-Jul-19 08:33N 58°43' W 002°59'10 9.7
2014-Jul-19 07:33N 58°42' W 002°40'378 8.0
2014-Jul-17 08:28N 57°50' E 009°12'8 8.6
2014-Jul-17 07:33N 57°50' E 009°27'9 8.7
2014-Jul-17 06:33N 57°49' E 009°43'9 8.6
2014-Jul-17 05:33N 57°49' E 009°59'8 8.2
2014-Jul-17 04:33N 57°48' E 010°14'8 7.9
2014-Jul-17 03:33N 57°48' E 010°29'8 7.7
2014-Jul-17 02:33N 57°47' E 010°44'8 7.8
2014-Jul-17 01:33N 57°43' E 010°56'8 7.9
2014-Jul-17 00:33N 57°38' E 011°07'8 8.3
2014-Jul-16 23:34N 57°32' E 011°18'9 8.5
2014-Jul-16 22:33N 57°25' E 011°28'9 9.0
2014-Jul-16 21:34N 57°17' E 011°34'9 8.9
2014-Jul-16 20:34N 57°09' E 011°39'9 8.7
2014-Jul-16 19:33N 57°00' E 011°45'9 8.8
2014-Jul-16 18:33N 56°52' E 011°50'9 9.2
2014-Jul-16 17:33N 56°43' E 011°55'1110.7
2014-Jul-16 16:33N 56°33' E 011°59'1010.5
2014-Jul-16 15:33N 56°23' E 012°03'10 9.7
2014-Jul-16 14:34N 56°15' E 012°13'  
Track history (hours):
 
Tides and Currents Weather Stations Pressure Air Temp Water Temp Dewpoint Dewpoint Depression Visibility Wind Speed Wind Dir Waves Ship Positions

Hanseatic Scout

Last reported at 2014-Jul-26 14:25 UTC. Time now 2014-Jul-26 15:15 UTC.
Position N 54°23' E 003°17'.

Length 89 m; draft 5.7 m.

Type: Cargo ship. MMSI: 304867000.

Date/timePositionNaut miles runAvg speedWind from/ knotsBaromVisibWave heightAir tempDewpointWater temp
2014-Jul-26 14:25N 54°23' E 003°17'8 9.2
2014-Jul-26 13:34N 54°29' E 003°08'9 9.1
2014-Jul-26 12:33N 54°36' E 002°58'9 9.1
2014-Jul-26 11:33N 54°43' E 002°48'9 9.2
2014-Jul-26 10:33N 54°51' E 002°39'10 9.6
2014-Jul-26 09:34N 54°58' E 002°28'10 9.5
2014-Jul-26 08:33N 55°06' E 002°18'10 9.6
2014-Jul-26 07:33N 55°13' E 002°08'10 9.6
2014-Jul-26 06:33N 55°21' E 001°57'10 9.6
2014-Jul-26 05:33N 55°28' E 001°47'1010.1
2014-Jul-26 04:32N 55°36' E 001°35'1010.0
2014-Jul-26 03:33N 55°44' E 001°24'1110.1
2014-Jul-26 02:26N 55°53' E 001°11'910.1
2014-Jul-26 01:33N 55°59' E 001°01'1010.1
2014-Jul-26 00:33N 56°07' E 000°50'1010.0
2014-Jul-25 23:33N 56°15' E 000°38'10 9.8
2014-Jul-25 22:34N 56°22' E 000°27'10 9.6
2014-Jul-25 21:33N 56°30' E 000°16'10 9.6
2014-Jul-25 20:33N 56°37' E 000°05'10 9.8
2014-Jul-25 19:34N 56°45' W 000°06'10 9.7
2014-Jul-25 18:34N 56°53' W 000°17'10 9.6
2014-Jul-25 17:34N 57°00' W 000°27'9 9.3
2014-Jul-25 16:34N 57°08' W 000°38'9 9.4
2014-Jul-25 15:33N 57°15' W 000°49'10 9.5
2014-Jul-25 14:33N 57°22' W 001°01'10 9.8
2014-Jul-25 13:34N 57°30' W 001°12'1010.2
2014-Jul-25 12:33N 57°38' W 001°24'1110.6
2014-Jul-25 11:34N 57°46' W 001°36'1010.4
2014-Jul-25 10:34N 57°54' W 001°49'1110.2
2014-Jul-25 09:31N 58°02' W 002°02'1310.2
2014-Jul-25 08:13N 58°13' W 002°18'710.2
2014-Jul-25 07:31N 58°18' W 002°26'1010.3
2014-Jul-25 06:33N 58°26' W 002°38'10 9.8
2014-Jul-25 05:34N 58°33' W 002°49'9 8.9
2014-Jul-25 04:33N 58°40' W 003°00'6 6.1
2014-Jul-25 03:33N 58°43' W 003°11'7 7.4
2014-Jul-25 02:33N 58°42' W 003°25'7 6.9
2014-Jul-25 01:33N 58°42' W 003°39'8 8.0
2014-Jul-25 00:33N 58°42' W 003°54'8 8.3
2014-Jul-24 23:34N 58°41' W 004°10'9 8.5
2014-Jul-24 22:33N 58°41' W 004°26'9 8.8
2014-Jul-24 21:33N 58°40' W 004°43'9 9.3
2014-Jul-24 20:33N 58°39' W 005°01'1510.4
2014-Jul-24 19:05N 58°28' W 005°20'6 9.9
2014-Jul-24 18:31N 58°23' W 005°27'2010.3
2014-Jul-24 16:32N 58°06' W 005°49'10 9.7
2014-Jul-24 15:33N 57°59' W 005°59'101 5.9
2014-Jul-23 22:34N 56°18' W 005°47'4 0.2
2014-Jul-23 04:19N 56°16' W 005°53'9 9.5
2014-Jul-23 03:22N 56°11' W 006°07'2310.1
2014-Jul-23 01:07N 55°53' W 006°31'610.7
2014-Jul-23 00:33N 55°47' W 006°33'1110.7
2014-Jul-22 23:33N 55°37' W 006°29'1111.5
2014-Jul-22 22:34N 55°28' W 006°17'1010.1
2014-Jul-22 21:34N 55°23' W 006°01'1111.2
2014-Jul-22 20:34N 55°14' W 005°51'1110.8
2014-Jul-22 19:34N 55°03' W 005°45'1010.3
2014-Jul-22 18:34N 54°54' W 005°38'10 9.7
2014-Jul-22 17:34N 54°44' W 005°40'10 9.6
2014-Jul-22 16:33N 54°38' W 005°53'1 0.5
2014-Jul-22 15:06N 54°37' W 005°54'0 0.0
2014-Jul-22 09:09N 54°37' W 005°54'0 0.0
2014-Jul-22 08:24N 54°37' W 005°54'0 0.0
2014-Jul-22 07:26N 54°37' W 005°54'0 0.0
2014-Jul-22 06:30N 54°37' W 005°54'0 0.0
2014-Jul-22 05:33N 54°37' W 005°54'0 0.0
2014-Jul-22 04:33N 54°37' W 005°54'0 0.0
2014-Jul-22 03:33N 54°37' W 005°54'0 0.0
2014-Jul-22 02:34N 54°37' W 005°54'0 0.0
2014-Jul-22 01:33N 54°37' W 005°54'0 0.0
2014-Jul-22 00:31N 54°37' W 005°54'0 0.0
2014-Jul-21 23:33N 54°37' W 005°54'0 0.0
2014-Jul-21 22:33N 54°37' W 005°54'0 0.0
2014-Jul-21 21:33N 54°37' W 005°54'0 0.0
2014-Jul-21 20:33N 54°37' W 005°54'0 0.0
2014-Jul-21 20:18N 54°37' W 005°54'0 0.0
2014-Jul-21 19:15N 54°37' W 005°54'0 0.0
2014-Jul-21 18:29N 54°37' W 005°54'0 0.0
2014-Jul-21 17:31N 54°37' W 005°54'0 0.0
2014-Jul-21 16:33N 54°37' W 005°54'0 0.0
2014-Jul-21 15:32N 54°37' W 005°54'0 0.0
2014-Jul-21 14:28N 54°37' W 005°54'0 0.0
2014-Jul-21 13:21N 54°37' W 005°54'0 0.0
2014-Jul-21 12:14N 54°37' W 005°54'0 0.0
2014-Jul-21 11:22N 54°37' W 005°54'0 0.0
2014-Jul-21 10:31N 54°37' W 005°54'0 0.0
2014-Jul-21 09:29N 54°37' W 005°54'0 0.0
2014-Jul-21 08:19N 54°37' W 005°54'0 0.0
2014-Jul-21 07:29N 54°37' W 005°54'0 0.0
2014-Jul-21 06:28N 54°37' W 005°54'2 2.0
2014-Jul-21 05:33N 54°39' W 005°52'8 8.1
2014-Jul-21 04:33N 54°44' W 005°41'7 6.6
2014-Jul-21 03:34N 54°49' W 005°36'6 6.4
2014-Jul-21 02:33N 54°56' W 005°34'18 8.8
2014-Jul-21 00:33N 55°10' W 005°53'8 7.8
2014-Jul-20 23:33N 55°16' W 006°01'7 6.7
2014-Jul-20 22:33N 55°21' W 006°08'7 7.1
2014-Jul-20 21:34N 55°24' W 006°20'7 7.0
2014-Jul-20 20:33N 55°30' W 006°26'7 6.9
2014-Jul-20 19:33N 55°36' W 006°32'6 5.6
2014-Jul-20 18:34N 55°41' W 006°37'8 7.7
2014-Jul-20 17:33N 55°47' W 006°45'9 9.0
2014-Jul-20 16:34N 55°55' W 006°52'131 7.2
2014-Jul-19 22:21N 58°03' W 006°08'7 8.1
2014-Jul-19 21:32N 58°08' W 005°59'8 8.1
2014-Jul-19 20:33N 58°14' W 005°48'8 8.0
2014-Jul-19 19:33N 58°19' W 005°38'39 7.8
2014-Jul-19 14:33N 58°40' W 004°35'7 7.5
2014-Jul-19 13:33N 58°41' W 004°21'7 6.8
2014-Jul-19 12:33N 58°41' W 004°08'7 7.0
2014-Jul-19 11:34N 58°42' W 003°54'8 7.7
2014-Jul-19 10:33N 58°43' W 003°40'9 8.8
2014-Jul-19 09:33N 58°43' W 003°22'1212.4
2014-Jul-19 08:33N 58°43' W 002°59'10 9.7
2014-Jul-19 07:33N 58°42' W 002°40'378 8.0
2014-Jul-17 08:28N 57°50' E 009°12'8 8.6
2014-Jul-17 07:33N 57°50' E 009°27'9 8.7
2014-Jul-17 06:33N 57°49' E 009°43'9 8.6
2014-Jul-17 05:33N 57°49' E 009°59'8 8.2
2014-Jul-17 04:33N 57°48' E 010°14'8 7.9
2014-Jul-17 03:33N 57°48' E 010°29'8 7.7
2014-Jul-17 02:33N 57°47' E 010°44'8 7.8
2014-Jul-17 01:33N 57°43' E 010°56'8 7.9
2014-Jul-17 00:33N 57°38' E 011°07'8 8.3
2014-Jul-16 23:34N 57°32' E 011°18'9 8.5
2014-Jul-16 22:33N 57°25' E 011°28'9 9.0
2014-Jul-16 21:34N 57°17' E 011°34'9 8.9
2014-Jul-16 20:34N 57°09' E 011°39'9 8.7
2014-Jul-16 19:33N 57°00' E 011°45'9 8.8
2014-Jul-16 18:33N 56°52' E 011°50'9 9.2
2014-Jul-16 17:33N 56°43' E 011°55'1110.7
2014-Jul-16 16:33N 56°33' E 011°59'1010.5
2014-Jul-16 15:33N 56°23' E 012°03'10 9.7
2014-Jul-16 14:34N 56°15' E 012°13'  

Dump ship's entire track history